Terminal Aerodrome Forecast
Issued by NWS

Home | Current Version | Previous Version | Text Only | Print | Product List | Glossary On
Versions: 1 2 3 4 5 6 7 8 9 10 11 12 13 14 15
706
FTUS45 KTFX 091132
TAFLWT
TAF
KLWT 091132Z 0912/1012 13006KT 4SM -SN OVC040
     FM091300 12006KT P6SM VCSH OVC025
     FM100000 12007KT P6SM OVC050 PROB30 1000/1006 4SM -SN OVC025
     FM100600 13007KT P6SM -SN OVC030=

USA.gov is the U.S. government's official web portal to all federal, state and local government web resources and services.